Trabzon — 9HA2783 — position and weather

sailwx.info

Track history (hours):
 
Tides and Currents Weather Stations Pressure Air Temp Water Temp Dewpoint Dewpoint Depression Visibility Wind Speed Wind Dir Waves Ship Positions

Trabzon

Last reported at 2015-Jul-05 22:19 UTC. Time now 2015-Jul-05 23:18 UTC.
Position N 59°04' W 005°35'.

Length 229 m; draft 12.6 m.

Type: Cargo ship. MMSI: 215679000.

Date/timePositionNaut miles runAvg speedWind from/ knotsBaromVisibWave heightAir tempDewpointWater temp
2015-Jul-05 22:19N 59°04' W 005°35'65212.9
2015-Jul-03 19:33N 66°17' E 012°09'1111.3
2015-Jul-03 18:33N 66°15' E 012°36'  
2015-Jun-30 23:16N 66°11' E 012°48'7 9.3
2015-Jun-30 22:33N 66°15' E 012°35'2 1.7
2015-Jun-30 21:33N 66°15' E 012°31'8 8.1
2015-Jun-30 20:33N 66°17' E 012°12'51211.0
2015-Jun-28 22:07N 58°31' E 004°30'712.9
2015-Jun-28 21:33N 58°24' E 004°34'1312.7
2015-Jun-28 20:33N 58°12' E 004°42'22412.4
2015-Jun-28 02:33N 54°29' E 005°14'1313.2
2015-Jun-28 01:33N 54°16' E 005°11'1313.1
2015-Jun-28 00:33N 54°03' E 005°06'1313.1
2015-Jun-27 23:33N 53°51' E 004°58'1312.8
2015-Jun-27 22:33N 53°39' E 004°51'1312.6
2015-Jun-27 21:33N 53°27' E 004°43'1212.1
2015-Jun-27 20:33N 53°16' E 004°36'1212.1
2015-Jun-27 19:33N 53°05' E 004°27'1212.1
2015-Jun-27 18:33N 52°55' E 004°17'1211.9
2015-Jun-27 17:33N 52°44' E 004°08'1111.3
2015-Jun-27 16:33N 52°33' E 004°08'1211.7
2015-Jun-27 15:33N 52°29' E 004°26'6 5.8
2015-Jun-27 14:32N 52°28' E 004°35'0 0.0
2015-Jun-27 13:31N 52°28' E 004°35'0 0.0
2015-Jun-27 12:31N 52°28' E 004°35'0 0.0
2015-Jun-27 11:31N 52°28' E 004°35'0 0.0
2015-Jun-27 10:32N 52°28' E 004°35'0 0.0
2015-Jun-27 09:31N 52°28' E 004°35'0 0.0
2015-Jun-27 07:31N 52°28' E 004°35'0 0.0
2015-Jun-27 06:31N 52°28' E 004°35'0 0.0
2015-Jun-27 05:31N 52°28' E 004°35'0 0.0
2015-Jun-27 04:32N 52°28' E 004°35'0 0.0
2015-Jun-27 03:32N 52°28' E 004°35'0 0.0
2015-Jun-27 02:31N 52°28' E 004°35'0 0.0
2015-Jun-27 01:31N 52°28' E 004°35'0 0.0
2015-Jun-27 00:31N 52°28' E 004°35'0 0.0
2015-Jun-26 23:31N 52°28' E 004°35'0 0.0
2015-Jun-26 22:31N 52°28' E 004°35'0 0.0
2015-Jun-26 21:28N 52°28' E 004°35'0 0.0
2015-Jun-26 20:31N 52°28' E 004°35'0 0.0
2015-Jun-26 19:31N 52°28' E 004°35'0 0.0
2015-Jun-26 18:28N 52°28' E 004°35'0 0.0
2015-Jun-26 17:31N 52°28' E 004°35'0 0.0
2015-Jun-26 16:31N 52°28' E 004°35'0 0.0
2015-Jun-26 15:28N 52°28' E 004°35'0 0.0
2015-Jun-26 14:31N 52°28' E 004°35'0 0.0
2015-Jun-26 13:31N 52°28' E 004°35'0 0.0
2015-Jun-26 12:31N 52°28' E 004°35'0 0.0
2015-Jun-26 11:31N 52°28' E 004°35'0 0.0
2015-Jun-26 10:31N 52°28' E 004°35'0 0.0
2015-Jun-26 09:31N 52°28' E 004°35'0 0.0
2015-Jun-26 08:31N 52°28' E 004°35'0 0.0
2015-Jun-26 07:31N 52°28' E 004°35'0 0.0
2015-Jun-26 06:31N 52°28' E 004°35'0 0.0
2015-Jun-26 05:31N 52°28' E 004°35'0 0.0
2015-Jun-26 04:31N 52°28' E 004°35'0 0.0
2015-Jun-26 03:31N 52°28' E 004°35'0 0.0
2015-Jun-26 02:31N 52°28' E 004°35'0 0.0
2015-Jun-26 01:31N 52°28' E 004°35'0 0.0
2015-Jun-25 23:31N 52°28' E 004°35'0 0.0
2015-Jun-25 22:31N 52°28' E 004°35'  
Track history (hours):
 
Tides and Currents Weather Stations Pressure Air Temp Water Temp Dewpoint Dewpoint Depression Visibility Wind Speed Wind Dir Waves Ship Positions

Trabzon

Last reported at 2015-Jul-05 22:19 UTC. Time now 2015-Jul-05 23:18 UTC.
Position N 59°04' W 005°35'.

Length 229 m; draft 12.6 m.

Type: Cargo ship. MMSI: 215679000.

Date/timePositionNaut miles runAvg speedWind from/ knotsBaromVisibWave heightAir tempDewpointWater temp
2015-Jul-05 22:19N 59°04' W 005°35'65212.9
2015-Jul-03 19:33N 66°17' E 012°09'1111.3
2015-Jul-03 18:33N 66°15' E 012°36'  
2015-Jun-30 23:16N 66°11' E 012°48'7 9.3
2015-Jun-30 22:33N 66°15' E 012°35'2 1.7
2015-Jun-30 21:33N 66°15' E 012°31'8 8.1
2015-Jun-30 20:33N 66°17' E 012°12'51211.0
2015-Jun-28 22:07N 58°31' E 004°30'712.9
2015-Jun-28 21:33N 58°24' E 004°34'1312.7
2015-Jun-28 20:33N 58°12' E 004°42'22412.4
2015-Jun-28 02:33N 54°29' E 005°14'1313.2
2015-Jun-28 01:33N 54°16' E 005°11'1313.1
2015-Jun-28 00:33N 54°03' E 005°06'1313.1
2015-Jun-27 23:33N 53°51' E 004°58'1312.8
2015-Jun-27 22:33N 53°39' E 004°51'1312.6
2015-Jun-27 21:33N 53°27' E 004°43'1212.1
2015-Jun-27 20:33N 53°16' E 004°36'1212.1
2015-Jun-27 19:33N 53°05' E 004°27'1212.1
2015-Jun-27 18:33N 52°55' E 004°17'1211.9
2015-Jun-27 17:33N 52°44' E 004°08'1111.3
2015-Jun-27 16:33N 52°33' E 004°08'1211.7
2015-Jun-27 15:33N 52°29' E 004°26'6 5.8
2015-Jun-27 14:32N 52°28' E 004°35'0 0.0
2015-Jun-27 13:31N 52°28' E 004°35'0 0.0
2015-Jun-27 12:31N 52°28' E 004°35'0 0.0
2015-Jun-27 11:31N 52°28' E 004°35'0 0.0
2015-Jun-27 10:32N 52°28' E 004°35'0 0.0
2015-Jun-27 09:31N 52°28' E 004°35'0 0.0
2015-Jun-27 07:31N 52°28' E 004°35'0 0.0
2015-Jun-27 06:31N 52°28' E 004°35'0 0.0
2015-Jun-27 05:31N 52°28' E 004°35'0 0.0
2015-Jun-27 04:32N 52°28' E 004°35'0 0.0
2015-Jun-27 03:32N 52°28' E 004°35'0 0.0
2015-Jun-27 02:31N 52°28' E 004°35'0 0.0
2015-Jun-27 01:31N 52°28' E 004°35'0 0.0
2015-Jun-27 00:31N 52°28' E 004°35'0 0.0
2015-Jun-26 23:31N 52°28' E 004°35'0 0.0
2015-Jun-26 22:31N 52°28' E 004°35'0 0.0
2015-Jun-26 21:28N 52°28' E 004°35'0 0.0
2015-Jun-26 20:31N 52°28' E 004°35'0 0.0
2015-Jun-26 19:31N 52°28' E 004°35'0 0.0
2015-Jun-26 18:28N 52°28' E 004°35'0 0.0
2015-Jun-26 17:31N 52°28' E 004°35'0 0.0
2015-Jun-26 16:31N 52°28' E 004°35'0 0.0
2015-Jun-26 15:28N 52°28' E 004°35'0 0.0
2015-Jun-26 14:31N 52°28' E 004°35'0 0.0
2015-Jun-26 13:31N 52°28' E 004°35'0 0.0
2015-Jun-26 12:31N 52°28' E 004°35'0 0.0
2015-Jun-26 11:31N 52°28' E 004°35'0 0.0
2015-Jun-26 10:31N 52°28' E 004°35'0 0.0
2015-Jun-26 09:31N 52°28' E 004°35'0 0.0
2015-Jun-26 08:31N 52°28' E 004°35'0 0.0
2015-Jun-26 07:31N 52°28' E 004°35'0 0.0
2015-Jun-26 06:31N 52°28' E 004°35'0 0.0
2015-Jun-26 05:31N 52°28' E 004°35'0 0.0
2015-Jun-26 04:31N 52°28' E 004°35'0 0.0
2015-Jun-26 03:31N 52°28' E 004°35'0 0.0
2015-Jun-26 02:31N 52°28' E 004°35'0 0.0
2015-Jun-26 01:31N 52°28' E 004°35'0 0.0
2015-Jun-25 23:31N 52°28' E 004°35'0 0.0
2015-Jun-25 22:31N 52°28' E 004°35'  

Dump ship's entire track history